createdAt,value
2024-03-05T00:00:39.103Z,81.08
2024-03-05T00:03:09.898Z,81.58
2024-03-05T00:05:39.604Z,81.68
2024-03-05T00:08:16.292Z,81.72
2024-03-05T00:10:45.640Z,82.16
2024-03-05T00:13:16.822Z,81.80
2024-03-05T00:15:46.983Z,81.38
2024-03-05T00:18:22.481Z,81.36
2024-03-05T00:20:53.942Z,81.65
2024-03-05T00:23:25.984Z,81.52
2024-03-05T00:25:58.284Z,81.31
2024-03-05T00:28:28.058Z,81.30
2024-03-05T00:30:59.459Z,82.25
2024-03-05T00:33:31.205Z,82.13
2024-03-05T00:36:00.763Z,82.13
2024-03-05T00:38:33.738Z,82.25
2024-03-05T00:41:08.250Z,82.19
2024-03-05T00:43:39.942Z,80.86
2024-03-05T00:46:11.648Z,80.68
2024-03-05T00:48:41.292Z,81.29
2024-03-05T00:51:10.982Z,81.87
2024-03-05T00:53:43.318Z,81.97
2024-03-05T00:56:14.904Z,83.12
2024-03-05T00:58:47.358Z,82.17
2024-03-05T01:01:17.658Z,81.48
2024-03-05T01:03:49.283Z,81.50
2024-03-05T01:06:20.238Z,82.08
2024-03-05T01:08:53.324Z,82.62
2024-03-05T01:11:25.462Z,82.13
2024-03-05T01:13:57.460Z,82.13
2024-03-05T01:16:27.816Z,81.98
2024-03-05T01:18:58.184Z,81.64
2024-03-05T01:21:29.820Z,81.23
2024-03-05T01:24:04.571Z,81.42
2024-03-05T01:26:35.981Z,81.69
2024-03-05T01:29:08.821Z,81.77
2024-03-05T01:31:40.280Z,81.76
2024-03-05T01:34:13.618Z,81.93
2024-03-05T01:36:46.122Z,81.25
2024-03-05T01:39:19.897Z,80.77
2024-03-05T01:41:54.028Z,80.89
2024-03-05T01:44:23.949Z,81.11
2024-03-05T01:46:57.931Z,81.43
2024-03-05T01:49:28.344Z,81.39
2024-03-05T01:52:02.915Z,81.29
2024-03-05T01:54:33.966Z,81.12
2024-03-05T01:57:03.330Z,80.44
2024-03-05T01:59:36.478Z,81.01
2024-03-05T02:02:11.787Z,80.51
2024-03-05T02:04:45.880Z,81.17
2024-03-05T02:07:19.916Z,82.51
2024-03-05T02:09:49.917Z,81.57
2024-03-05T02:12:20.413Z,81.39
2024-03-05T02:14:53.135Z,81.42
2024-03-05T02:17:28.436Z,81.60
2024-03-05T02:19:58.454Z,82.00
2024-03-05T02:22:28.531Z,82.04
2024-03-05T02:25:01.092Z,82.07
2024-03-05T02:27:39.936Z,81.51
2024-03-05T02:30:13.961Z,81.47
2024-03-05T02:32:43.691Z,81.12
2024-03-05T02:35:15.817Z,81.32
2024-03-05T02:37:45.179Z,80.95
2024-03-05T02:40:17.321Z,81.36
2024-03-05T02:42:48.718Z,81.43
2024-03-05T02:45:18.935Z,82.15
2024-03-05T02:47:49.753Z,82.06
2024-03-05T02:50:20.775Z,81.73
2024-03-05T02:52:51.515Z,81.33
2024-03-05T02:55:24.455Z,82.56
2024-03-05T02:57:55.283Z,82.43
2024-03-05T03:00:25.873Z,82.32
2024-03-05T03:03:00.186Z,82.91
2024-03-05T03:05:33.040Z,82.94
2024-03-05T03:08:02.457Z,83.09
2024-03-05T03:10:36.103Z,83.02
2024-03-05T03:13:05.924Z,82.62
2024-03-05T03:15:37.593Z,82.36
2024-03-05T03:18:29.227Z,82.72
2024-03-05T03:20:58.763Z,83.57
2024-03-05T03:23:31.292Z,83.27
2024-03-05T03:26:02.982Z,83.13
2024-03-05T03:28:35.292Z,83.54
2024-03-05T03:31:07.646Z,83.79
2024-03-05T03:33:37.841Z,84.24
2024-03-05T03:36:07.993Z,83.25
2024-03-05T03:38:40.972Z,82.46
2024-03-05T03:41:17.935Z,82.42
2024-03-05T03:43:50.620Z,82.85
2024-03-05T03:46:20.345Z,83.76
2024-03-05T03:48:52.388Z,83.70
2024-03-05T03:51:30.777Z,83.63
2024-03-05T03:54:05.887Z,83.51
2024-03-05T03:56:35.760Z,84.18
2024-03-05T03:59:06.329Z,82.90
2024-03-05T04:01:36.857Z,83.47
2024-03-05T04:04:07.212Z,83.85
2024-03-05T04:06:38.953Z,84.31
2024-03-05T04:09:11.266Z,84.28
2024-03-05T04:11:44.206Z,83.87
2024-03-05T04:14:16.774Z,84.16
2024-03-05T04:16:47.262Z,84.26
2024-03-05T04:19:17.646Z,84.10
2024-03-05T04:21:49.963Z,83.76
2024-03-05T04:24:19.711Z,83.81
2024-03-05T04:26:55.260Z,83.37
2024-03-05T04:29:33.505Z,83.97
2024-03-05T04:32:10.521Z,83.61
2024-03-05T04:35:02.104Z,83.29
2024-03-05T04:37:53.080Z,83.49
2024-03-05T04:40:25.492Z,82.65
2024-03-05T04:43:15.006Z,84.06
2024-03-05T04:45:47.264Z,84.58
2024-03-05T04:48:16.979Z,84.58
2024-03-05T04:50:47.666Z,84.45
2024-03-05T04:53:19.907Z,84.89
2024-03-05T04:55:49.519Z,85.00
2024-03-05T04:58:24.878Z,84.66
2024-03-05T05:00:57.184Z,84.43
2024-03-05T05:03:28.377Z,83.63
2024-03-05T05:06:02.419Z,83.32
2024-03-05T05:08:39.095Z,83.73
2024-03-05T05:11:10.128Z,83.82
2024-03-05T05:13:46.227Z,84.09
2024-03-05T05:16:17.613Z,84.64
2024-03-05T05:18:47.428Z,84.65
2024-03-05T05:21:18.272Z,84.53
2024-03-05T05:23:58.995Z,83.58
2024-03-05T05:26:30.577Z,83.11
2024-03-05T05:29:00.798Z,82.69
2024-03-05T05:31:31.432Z,84.08
2024-03-05T05:34:02.700Z,85.02
2024-03-05T05:36:35.387Z,85.07
2024-03-05T05:39:07.930Z,84.41
2024-03-05T05:41:39.751Z,84.91
2024-03-05T05:44:12.467Z,86.04
2024-03-05T05:46:44.358Z,86.78
2024-03-05T05:49:35.377Z,86.80
2024-03-05T05:52:09.620Z,87.11
2024-03-05T05:54:49.416Z,86.21
2024-03-05T05:57:19.485Z,86.11
2024-03-05T05:59:50.402Z,86.91
2024-03-05T06:02:30.669Z,87.36
2024-03-05T06:05:05.226Z,87.03
2024-03-05T06:07:42.171Z,87.59
2024-03-05T06:10:13.983Z,88.89
2024-03-05T06:12:53.559Z,89.40
2024-03-05T06:15:25.578Z,90.19
2024-03-05T06:17:57.499Z,91.23
2024-03-05T06:20:26.222Z,91.52
2024-03-05T06:23:00.083Z,91.79
2024-03-05T06:25:32.067Z,92.09
2024-03-05T06:28:03.951Z,92.45
2024-03-05T06:30:35.723Z,93.15
2024-03-05T06:33:11.716Z,93.71
2024-03-05T06:35:41.905Z,94.05
2024-03-05T06:38:10.271Z,93.49
2024-03-05T06:40:40.458Z,93.00
2024-03-05T06:43:31.060Z,92.90
2024-03-05T06:46:07.121Z,92.58
2024-03-05T06:48:44.209Z,92.65
2024-03-05T06:51:37.206Z,92.84
2024-03-05T06:54:29.048Z,92.78
2024-03-05T06:57:00.831Z,93.15
2024-03-05T06:59:31.234Z,93.85
2024-03-05T07:02:02.061Z,93.53
2024-03-05T07:04:31.543Z,93.49
2024-03-05T07:07:02.657Z,93.90
2024-03-05T07:09:33.511Z,94.51
2024-03-05T07:12:09.227Z,94.94
2024-03-05T07:14:40.997Z,94.18
2024-03-05T07:17:12.263Z,94.63
2024-03-05T07:19:44.612Z,94.79
2024-03-05T07:22:15.451Z,94.73
2024-03-05T07:24:48.018Z,94.49
2024-03-05T07:27:17.639Z,94.77
2024-03-05T07:29:48.333Z,94.54
2024-03-05T07:32:20.030Z,94.60
2024-03-05T07:34:49.579Z,95.14
2024-03-05T07:37:19.826Z,94.59
2024-03-05T07:39:51.581Z,95.02
2024-03-05T07:42:24.995Z,94.75
2024-03-05T07:44:57.737Z,94.30
2024-03-05T07:47:34.418Z,95.10
2024-03-05T07:50:07.045Z,95.50
2024-03-05T07:52:38.696Z,95.53
2024-03-05T07:55:21.634Z,95.79
2024-03-05T07:58:12.436Z,95.84
2024-03-05T08:00:44.417Z,95.91
2024-03-05T08:03:13.917Z,95.63
2024-03-05T08:05:44.653Z,95.63
2024-03-05T08:08:16.245Z,94.71
2024-03-05T08:10:58.266Z,95.17
2024-03-05T08:13:35.389Z,95.31
2024-03-05T08:16:06.176Z,95.00
2024-03-05T08:18:37.670Z,94.72
2024-03-05T08:21:09.335Z,94.76
2024-03-05T08:23:39.550Z,94.27
2024-03-05T08:26:12.940Z,94.71
2024-03-05T08:28:47.697Z,92.95
2024-03-05T08:31:18.428Z,93.48
2024-03-05T08:33:48.611Z,93.28
2024-03-05T08:36:20.987Z,93.03
2024-03-05T08:38:58.265Z,94.18
2024-03-05T08:41:28.785Z,93.77
2024-03-05T08:43:59.497Z,92.44
2024-03-05T08:46:29.098Z,91.06
2024-03-05T08:49:00.684Z,91.77
2024-03-05T08:51:33.132Z,91.01
2024-03-05T08:54:04.810Z,88.72
2024-03-05T08:56:48.757Z,87.75
2024-03-05T08:59:20.184Z,86.40
2024-03-05T09:01:53.970Z,85.50
2024-03-05T09:04:22.880Z,86.47
2024-03-05T09:06:52.328Z,86.59
2024-03-05T09:09:21.903Z,85.23
2024-03-05T09:11:54.233Z,85.01
2024-03-05T09:14:24.727Z,83.48
2024-03-05T09:16:56.749Z,82.46
2024-03-05T09:19:29.335Z,82.57
2024-03-05T09:22:05.815Z,82.91
2024-03-05T09:24:39.708Z,81.97
2024-03-05T09:27:11.879Z,81.29
2024-03-05T09:29:44.883Z,80.16
2024-03-05T09:32:26.159Z,80.56
2024-03-05T09:35:01.081Z,80.65
2024-03-05T09:37:38.747Z,81.82
2024-03-05T09:40:22.456Z,80.68
2024-03-05T09:42:59.897Z,81.08
2024-03-05T09:45:32.311Z,80.70
2024-03-05T09:48:08.294Z,78.07
2024-03-05T09:50:40.020Z,78.86
2024-03-05T09:53:15.075Z,79.17
2024-03-05T09:55:52.274Z,78.93
2024-03-05T09:58:37.752Z,75.88
2024-03-05T10:01:10.370Z,75.63
2024-03-05T10:03:46.322Z,77.18
2024-03-05T10:06:20.324Z,76.78
2024-03-05T10:08:51.972Z,76.66
2024-03-05T10:11:25.439Z,75.53
2024-03-05T10:13:55.809Z,74.49
2024-03-05T10:16:27.788Z,73.58
2024-03-05T10:18:56.823Z,71.93
2024-03-05T10:21:34.978Z,71.93
2024-03-05T10:24:07.231Z,71.82
2024-03-05T10:26:40.484Z,71.79
2024-03-05T10:29:13.940Z,70.83
2024-03-05T10:31:46.406Z,70.49
2024-03-05T10:34:18.686Z,69.52
2024-03-05T10:36:50.197Z,69.18
2024-03-05T10:39:20.568Z,69.54
2024-03-05T10:41:54.031Z,69.16
2024-03-05T10:44:23.771Z,68.31
2024-03-05T10:46:54.999Z,67.97
2024-03-05T10:49:26.880Z,68.04
2024-03-05T10:52:00.437Z,66.85
2024-03-05T10:54:32.018Z,66.93
2024-03-05T10:57:04.991Z,66.56
2024-03-05T10:59:49.370Z,65.77
2024-03-05T11:02:18.173Z,65.55
2024-03-05T11:04:57.925Z,65.40
2024-03-05T11:07:31.064Z,65.07
2024-03-05T11:10:03.056Z,64.99
2024-03-05T11:12:47.732Z,64.87
2024-03-05T11:15:17.563Z,64.77
2024-03-05T11:17:58.035Z,64.59
2024-03-05T11:21:13.651Z,63.94
2024-03-05T11:24:00.874Z,64.32
2024-03-05T11:26:33.914Z,63.03
2024-03-05T11:29:19.108Z,63.21
2024-03-05T11:31:52.782Z,63.40
2024-03-05T11:34:23.670Z,63.36
2024-03-05T11:37:13.200Z,62.99
2024-03-05T11:39:47.177Z,62.79
2024-03-05T11:42:21.740Z,61.54
2024-03-05T11:44:55.128Z,61.78
2024-03-05T11:47:26.945Z,62.12
2024-03-05T11:50:05.130Z,61.60
2024-03-05T11:52:36.351Z,60.69
2024-03-05T11:55:12.145Z,59.58
2024-03-05T11:57:43.456Z,58.93
2024-03-05T12:00:17.910Z,56.96
2024-03-05T12:02:59.361Z,57.05
2024-03-05T12:05:32.013Z,57.66
2024-03-05T12:08:10.401Z,55.55
2024-03-05T12:10:42.192Z,55.32
2024-03-05T12:13:20.595Z,55.95
2024-03-05T12:15:52.291Z,55.80
2024-03-05T12:18:23.103Z,55.56
2024-03-05T12:20:57.218Z,56.19
2024-03-05T12:23:41.301Z,56.86
2024-03-05T12:26:12.729Z,57.26
2024-03-05T12:28:42.726Z,56.52
2024-03-05T12:31:13.183Z,56.85
2024-03-05T12:33:45.994Z,55.27
2024-03-05T12:36:17.560Z,55.55
2024-03-05T12:38:48.068Z,56.71
2024-03-05T12:41:29.509Z,55.89
2024-03-05T12:44:01.094Z,53.93
2024-03-05T12:46:38.806Z,53.73
2024-03-05T12:49:22.849Z,53.59
2024-03-05T12:52:03.821Z,53.65
2024-03-05T12:55:04.967Z,54.71
2024-03-05T12:57:38.972Z,53.86
2024-03-05T13:00:14.877Z,54.45
2024-03-05T13:02:45.060Z,53.65
2024-03-05T13:05:14.612Z,53.50
2024-03-05T13:07:47.473Z,53.20
2024-03-05T13:10:16.944Z,53.31
2024-03-05T13:12:48.697Z,53.14
2024-03-05T13:15:20.143Z,52.86
2024-03-05T13:17:49.404Z,52.42
2024-03-05T13:20:21.064Z,51.89
2024-03-05T13:22:55.797Z,52.67
2024-03-05T13:25:27.396Z,52.68
2024-03-05T13:28:02.074Z,50.53
2024-03-05T13:30:34.598Z,50.62
2024-03-05T13:33:06.424Z,51.70
2024-03-05T13:35:37.262Z,51.44
2024-03-05T13:38:09.524Z,51.10
2024-03-05T13:40:39.143Z,50.67
2024-03-05T13:43:12.793Z,49.82
2024-03-05T13:45:42.112Z,49.73
2024-03-05T13:48:13.004Z,49.63
2024-03-05T13:51:11.851Z,49.72
2024-03-05T13:53:44.161Z,48.62
2024-03-05T13:56:47.420Z,49.80
2024-03-05T13:59:28.572Z,49.39
2024-03-05T14:02:00.929Z,49.01
2024-03-05T14:04:32.563Z,49.74
2024-03-05T14:07:08.180Z,50.16
2024-03-05T14:09:41.789Z,50.68
2024-03-05T14:12:13.424Z,50.88
2024-03-05T14:18:23.191Z,51.80
2024-03-05T14:21:14.625Z,51.48
2024-03-05T14:23:44.301Z,52.14
2024-03-05T14:26:19.236Z,52.27
2024-03-05T14:28:51.091Z,52.62
2024-03-05T14:31:21.114Z,53.06
2024-03-05T14:33:54.344Z,53.36
2024-03-05T14:36:27.263Z,53.58
2024-03-05T14:38:58.963Z,54.01
2024-03-05T14:41:28.905Z,54.38
2024-03-05T14:44:11.971Z,54.81
2024-03-05T14:46:48.831Z,55.39
2024-03-05T14:49:22.514Z,54.96
2024-03-05T14:51:55.964Z,55.36
2024-03-05T14:54:25.503Z,55.55
2024-03-05T14:56:54.737Z,55.75
2024-03-05T14:59:25.270Z,55.48
2024-03-05T15:01:56.308Z,55.78
2024-03-05T15:04:29.866Z,55.71
2024-03-05T15:06:59.824Z,56.01
2024-03-05T15:09:35.043Z,56.24
2024-03-05T15:12:06.371Z,56.09
2024-03-05T15:14:35.661Z,56.27
2024-03-05T15:17:10.851Z,55.14
2024-03-05T15:19:50.193Z,54.46
2024-03-05T15:22:27.305Z,53.72
2024-03-05T15:24:56.745Z,53.61
2024-03-05T15:27:31.366Z,53.55
2024-03-05T15:30:02.037Z,53.30
2024-03-05T15:32:33.842Z,53.17
2024-03-05T15:35:06.296Z,52.96
2024-03-05T15:37:38.023Z,53.55
2024-03-05T15:40:18.584Z,53.55
2024-03-05T15:42:53.999Z,53.93
2024-03-05T15:45:27.256Z,54.39
2024-03-05T15:47:57.224Z,54.42
2024-03-05T15:50:31.876Z,54.49
2024-03-05T15:53:04.554Z,55.03
2024-03-05T15:55:46.328Z,55.44
2024-03-05T15:58:42.493Z,54.97
2024-03-05T16:01:27.779Z,54.89
2024-03-05T16:04:15.331Z,55.17
2024-03-05T16:06:53.381Z,55.30
2024-03-05T16:09:28.654Z,56.04
2024-03-05T16:11:59.639Z,56.19
2024-03-05T16:14:48.267Z,57.23
2024-03-05T16:17:19.371Z,57.48
2024-03-05T16:19:55.534Z,57.53
2024-03-05T16:22:24.981Z,57.53
2024-03-05T16:24:57.334Z,58.05
2024-03-05T16:27:28.795Z,58.27
2024-03-05T16:29:58.088Z,58.26
2024-03-05T16:32:27.790Z,58.48
2024-03-05T16:35:01.196Z,58.56
2024-03-05T16:37:37.863Z,58.72
2024-03-05T16:40:29.274Z,58.65
2024-03-05T16:43:11.479Z,58.70
2024-03-05T16:45:41.922Z,58.99
2024-03-05T16:48:12.056Z,59.22
2024-03-05T16:50:46.706Z,59.40
2024-03-05T16:53:16.581Z,59.57
2024-03-05T16:55:50.629Z,59.70
2024-03-05T16:58:23.261Z,59.91
2024-03-05T17:00:54.083Z,59.83
2024-03-05T17:03:31.638Z,59.93
2024-03-05T17:06:05.680Z,60.23
2024-03-05T17:08:36.581Z,60.55
2024-03-05T17:11:18.259Z,60.71
2024-03-05T17:13:52.426Z,61.16
2024-03-05T17:16:26.698Z,61.26
2024-03-05T17:18:56.852Z,61.56
2024-03-05T17:21:29.234Z,61.94
2024-03-05T17:24:01.122Z,61.99
2024-03-05T17:26:33.052Z,62.52
2024-03-05T17:29:12.588Z,62.60
2024-03-05T17:31:50.960Z,62.86
2024-03-05T17:34:22.787Z,63.24
2024-03-05T17:36:52.096Z,63.18
2024-03-05T17:39:26.618Z,63.64
2024-03-05T17:42:00.484Z,63.76
2024-03-05T17:44:40.241Z,63.84
2024-03-05T17:47:13.359Z,64.12
2024-03-05T17:49:55.694Z,64.31
2024-03-05T17:52:31.368Z,64.41
2024-03-05T17:55:06.159Z,64.74
2024-03-05T17:57:34.625Z,65.01
2024-03-05T18:00:28.311Z,65.25
2024-03-05T18:03:03.435Z,65.34
2024-03-05T18:05:36.774Z,65.57
2024-03-05T18:08:11.959Z,66.01
2024-03-05T18:10:45.641Z,66.21
2024-03-05T18:13:17.050Z,66.51
2024-03-05T18:15:50.720Z,66.79
2024-03-05T18:18:31.691Z,67.14
2024-03-05T18:21:03.694Z,67.26
2024-03-05T18:23:39.641Z,67.29
2024-03-05T18:26:13.765Z,67.65
2024-03-05T18:28:44.814Z,67.63
2024-03-05T18:31:17.561Z,67.84
2024-03-05T18:33:56.319Z,67.84
2024-03-05T18:36:30.042Z,68.08
2024-03-05T18:39:09.796Z,68.49
2024-03-05T18:41:40.216Z,68.51
2024-03-05T18:44:16.104Z,68.76
2024-03-05T18:46:48.714Z,68.76
2024-03-05T18:49:24.162Z,68.93
2024-03-05T18:52:07.583Z,69.12
2024-03-05T18:54:37.452Z,69.54
2024-03-05T18:57:09.504Z,69.49
2024-03-05T18:59:41.663Z,69.84
2024-03-05T19:02:13.474Z,69.99
2024-03-05T19:04:44.078Z,70.24
2024-03-05T19:07:14.481Z,70.42
2024-03-05T19:09:50.837Z,70.76
2024-03-05T19:12:30.127Z,70.80
2024-03-05T19:15:06.083Z,71.03
2024-03-05T19:17:35.663Z,71.47
2024-03-05T19:20:11.502Z,71.51
2024-03-05T19:22:45.619Z,71.66
2024-03-05T19:25:20.264Z,72.29
2024-03-05T19:28:01.713Z,72.47
2024-03-05T19:30:34.086Z,72.65
2024-03-05T19:33:06.826Z,73.07
2024-03-05T19:35:46.134Z,73.19
2024-03-05T19:38:26.750Z,73.45
2024-03-05T19:40:58.908Z,73.27
2024-03-05T19:43:30.903Z,73.22
2024-03-05T19:46:09.708Z,73.29
2024-03-05T19:48:39.657Z,73.51
2024-03-05T19:51:14.167Z,73.55
2024-03-05T19:53:44.319Z,73.74
2024-03-05T19:56:14.754Z,74.21
2024-03-05T19:58:44.774Z,74.66
2024-03-05T20:04:57.385Z,75.11
2024-03-05T20:07:40.418Z,75.27
2024-03-05T20:10:23.636Z,75.55
2024-03-05T20:12:57.647Z,75.81
2024-03-05T20:15:29.184Z,76.31
2024-03-05T20:17:58.600Z,76.34
2024-03-05T20:20:30.130Z,76.52
2024-03-05T20:23:14.102Z,76.63
2024-03-05T20:25:48.232Z,76.71
2024-03-05T20:28:19.621Z,77.23
2024-03-05T20:30:52.932Z,77.40
2024-03-05T20:33:41.812Z,77.48
2024-03-05T20:36:15.635Z,77.85
2024-03-05T20:39:08.799Z,77.98
2024-03-05T20:41:45.684Z,77.89
2024-03-05T20:44:23.131Z,77.62
2024-03-05T20:47:01.975Z,77.47
2024-03-05T20:49:53.569Z,76.84
2024-03-05T20:52:32.717Z,76.63
2024-03-05T20:55:21.224Z,76.30
2024-03-05T20:57:53.889Z,76.27
2024-03-05T21:00:27.276Z,75.47
2024-03-05T21:03:00.187Z,75.30
2024-03-05T21:05:31.626Z,75.74
2024-03-05T21:08:03.379Z,75.69
2024-03-05T21:10:34.197Z,76.08
2024-03-05T21:13:10.801Z,76.10
2024-03-05T21:15:42.344Z,76.83
2024-03-05T21:18:15.196Z,76.86
2024-03-05T21:20:51.408Z,76.82
2024-03-05T21:23:24.436Z,76.36
2024-03-05T21:26:14.068Z,76.14
2024-03-05T21:28:58.230Z,76.36
2024-03-05T21:31:36.660Z,76.51
2024-03-05T21:34:07.084Z,76.59
2024-03-05T21:36:51.478Z,76.69
2024-03-05T21:39:38.989Z,77.67
2024-03-05T21:42:10.565Z,77.55
2024-03-05T21:45:00.112Z,77.61
2024-03-05T21:47:35.060Z,77.75
2024-03-05T21:50:13.142Z,78.17
2024-03-05T21:52:53.068Z,78.50
2024-03-05T21:55:24.984Z,79.96
2024-03-05T21:57:58.149Z,79.56
2024-03-05T22:00:37.029Z,79.92
2024-03-05T22:03:06.755Z,80.67
2024-03-05T22:05:41.853Z,80.51
2024-03-05T22:08:25.111Z,81.34
2024-03-05T22:10:55.545Z,81.44
2024-03-05T22:13:24.760Z,81.23
2024-03-05T22:15:57.092Z,80.46
2024-03-05T22:18:29.578Z,79.17
2024-03-05T22:21:06.256Z,79.76
2024-03-05T22:24:00.691Z,79.93
2024-03-05T22:26:49.256Z,80.24
2024-03-05T22:29:27.033Z,79.92
2024-03-05T22:31:57.697Z,79.40
2024-03-05T22:34:33.431Z,79.45
2024-03-05T22:37:30.649Z,79.66
2024-03-05T22:40:10.299Z,80.44
2024-03-05T22:42:40.968Z,81.68
2024-03-05T22:45:19.218Z,82.31
2024-03-05T22:48:03.529Z,82.84
2024-03-05T22:50:58.992Z,82.53
2024-03-05T22:53:49.394Z,82.63
2024-03-05T22:56:25.190Z,82.00
2024-03-05T22:58:57.021Z,82.31
2024-03-05T23:01:37.453Z,82.35
2024-03-05T23:04:07.953Z,82.47
2024-03-05T23:06:37.738Z,82.65
2024-03-05T23:09:09.050Z,82.52
2024-03-05T23:11:43.409Z,82.43
2024-03-05T23:14:19.838Z,82.37
2024-03-05T23:16:52.709Z,82.02
2024-03-05T23:19:24.080Z,81.99
2024-03-05T23:21:54.613Z,81.60
2024-03-05T23:24:24.685Z,81.26
2024-03-05T23:27:00.859Z,81.29
2024-03-05T23:29:35.415Z,80.95
2024-03-05T23:32:05.248Z,80.89
2024-03-05T23:34:38.749Z,80.91
2024-03-05T23:37:15.391Z,81.06
2024-03-05T23:39:49.075Z,81.01
2024-03-05T23:42:20.341Z,81.12
2024-03-05T23:44:50.042Z,80.71
2024-03-05T23:47:26.705Z,79.62
2024-03-05T23:50:02.762Z,80.12
2024-03-05T23:52:35.131Z,80.56
2024-03-05T23:55:07.481Z,79.95
2024-03-05T23:57:45.950Z,79.39
